Time;durP1;ratioP1;P1;durP2;ratioP2;P2;SDS_P1;SDS_P2;PMS_P1;PMS_P2;Temp;Humidity;BMP_temperature;BMP_pressure;BME280_temperature;BME280_humidity;BME280_pressure;Samples;Min_cycle;Max_cycle;Signal;HPM_P1;HPM_P2
2023/07/08 00:00:50;;;;;;;7.38;3.58;;;19.00;99.90;;;;;;6307098;22;20338;-84
2023/07/08 00:03:17;;;;;;;6.43;2.80;;;19.10;99.90;;;;;;6334744;22;20022;-85
2023/07/08 00:05:45;;;;;;;7.35;3.35;;;19.00;99.90;;;;;;6335002;22;20064;-84
2023/07/08 00:08:15;;;;;;;6.70;3.30;;;18.90;99.90;;;;;;6306616;22;20089;-84
2023/07/08 00:10:40;;;;;;;7.10;3.33;;;18.90;99.90;;;;;;6307348;22;20356;-84
2023/07/08 00:13:09;;;;;;;8.63;3.55;;;18.90;99.90;;;;;;6306547;22;20089;-84
2023/07/08 00:15:36;;;;;;;7.82;3.50;;;18.80;99.90;;;;;;6307653;22;20019;-84
2023/07/08 00:18:14;;;;;;;7.93;3.88;;;18.80;99.90;;;;;;6306507;22;20015;-84
2023/07/08 00:20:44;;;;;;;10.55;3.85;;;18.80;99.90;;;;;;6281498;22;20018;-84
2023/07/08 00:23:10;;;;;;;8.52;4.25;;;18.70;99.90;;;;;;6333082;22;20422;-84
2023/07/08 00:25:36;;;;;;;6.05;3.30;;;18.60;99.90;;;;;;6306309;22;20111;-84
2023/07/08 00:28:04;;;;;;;7.32;3.90;;;18.60;99.90;;;;;;6333953;22;20107;-84
2023/07/08 00:30:31;;;;;;;10.68;3.33;;;18.60;99.90;;;;;;6307475;22;20082;-84
2023/07/08 00:32:58;;;;;;;7.85;3.92;;;18.50;99.90;;;;;;6305776;22;20391;-84
2023/07/08 00:35:37;;;;;;;8.45;3.58;;;18.50;99.90;;;;;;6333811;22;20021;-84
2023/07/08 00:38:15;;;;;;;8.75;3.97;;;18.40;99.90;;;;;;6304031;22;20034;-84
2023/07/08 00:41:09;;;;;;;7.38;3.58;;;18.40;99.90;;;;;;6306494;22;20041;-84
2023/07/08 00:43:57;;;;;;;6.85;3.80;;;18.40;99.90;;;;;;6305177;22;20051;-84
2023/07/08 00:46:31;;;;;;;10.95;4.00;;;18.40;99.90;;;;;;6305405;22;20037;-85
2023/07/08 00:49:06;;;;;;;6.35;3.30;;;18.30;99.90;;;;;;6279879;22;20198;-84
2023/07/08 00:51:33;;;;;;;7.65;3.55;;;18.30;99.90;;;;;;6306907;22;20011;-84
2023/07/08 00:53:59;;;;;;;6.68;3.83;;;18.30;99.90;;;;;;6306709;22;20687;-84
2023/07/08 00:56:25;;;;;;;7.50;3.70;;;18.20;99.90;;;;;;6305876;22;20015;-84
2023/07/08 00:59:05;;;;;;;9.27;3.83;;;18.20;99.90;;;;;;6334099;22;20015;-84
2023/07/08 01:01:35;;;;;;;6.07;3.53;;;18.20;99.90;;;;;;6306466;22;20041;-84
2023/07/08 01:04:18;;;;;;;6.25;3.63;;;18.10;99.90;;;;;;6306324;22;20504;-84
2023/07/08 01:06:52;;;;;;;6.65;3.70;;;18.10;99.90;;;;;;6306337;22;20083;-84
2023/07/08 01:09:18;;;;;;;8.43;3.65;;;18.10;99.90;;;;;;6334320;22;20022;-83
2023/07/08 01:11:45;;;;;;;5.85;3.35;;;18.10;99.90;;;;;;6334308;22;20011;-84
2023/07/08 01:14:14;;;;;;;6.43;3.38;;;18.00;99.90;;;;;;6281274;22;20097;-84
2023/07/08 01:16:40;;;;;;;6.95;3.38;;;18.00;99.90;;;;;;6280698;22;20019;-84
2023/07/08 01:19:09;;;;;;;7.53;3.83;;;18.00;99.90;;;;;;6334013;22;20011;-84
2023/07/08 01:21:38;;;;;;;6.05;3.53;;;18.00;99.90;;;;;;6333613;22;20015;-84
2023/07/08 01:24:09;;;;;;;6.72;3.20;;;17.90;99.90;;;;;;6307103;22;20018;-83
2023/07/08 01:26:39;;;;;;;6.65;3.65;;;17.90;99.90;;;;;;6306762;22;20430;-83
2023/07/08 01:29:07;;;;;;;8.10;4.13;;;17.80;99.90;;;;;;6307259;22;20096;-83
2023/07/08 01:31:35;;;;;;;9.15;4.50;;;17.80;99.90;;;;;;6305566;22;20006;-83
2023/07/08 01:34:01;;;;;;;5.82;3.55;;;17.90;99.90;;;;;;6280341;22;20481;-84
2023/07/08 01:36:34;;;;;;;6.68;3.45;;;17.80;99.90;;;;;;6306528;22;20055;-83
2023/07/08 01:38:59;;;;;;;8.20;3.45;;;17.70;99.90;;;;;;6305012;22;20016;-84
2023/07/08 01:41:25;;;;;;;5.75;3.38;;;17.70;99.90;;;;;;6334925;22;20063;-84
2023/07/08 01:43:51;;;;;;;7.85;3.88;;;17.70;99.90;;;;;;6306118;22;20013;-84
2023/07/08 01:46:25;;;;;;;7.07;3.90;;;17.60;99.90;;;;;;6332902;22;20015;-84
2023/07/08 01:48:59;;;;;;;5.90;3.50;;;17.70;99.90;;;;;;6305809;22;20015;-84
2023/07/08 01:51:26;;;;;;;7.18;3.55;;;17.60;99.90;;;;;;6305817;22;20014;-84
2023/07/08 01:53:52;;;;;;;6.43;3.67;;;17.60;99.90;;;;;;6306569;22;20010;-83
2023/07/08 01:56:18;;;;;;;6.53;3.35;;;17.50;99.90;;;;;;6333562;22;20038;-84
2023/07/08 01:58:44;;;;;;;5.93;3.78;;;17.60;99.90;;;;;;6306173;22;20007;-83
2023/07/08 02:01:10;;;;;;;7.13;3.55;;;17.50;99.90;;;;;;6305935;22;20011;-83
2023/07/08 02:03:36;;;;;;;7.43;4.15;;;17.50;99.90;;;;;;6305295;22;20053;-83
2023/07/08 02:06:03;;;;;;;7.05;4.00;;;17.40;99.90;;;;;;6305215;22;20089;-85
2023/07/08 02:08:28;;;;;;;7.63;4.22;;;17.40;99.90;;;;;;6280023;22;20011;-83
2023/07/08 02:10:58;;;;;;;8.75;4.55;;;17.40;99.90;;;;;;6279547;22;20037;-84
2023/07/08 02:13:25;;;;;;;8.27;4.78;;;17.40;99.90;;;;;;6333626;22;20030;-83
2023/07/08 02:15:51;;;;;;;8.10;4.43;;;17.30;99.90;;;;;;6307048;22;20010;-84
2023/07/08 02:18:20;;;;;;;5.80;3.90;;;17.30;99.90;;;;;;6304258;22;20018;-83
2023/07/08 02:20:47;;;;;;;8.07;4.30;;;17.30;99.90;;;;;;6280037;22;20068;-84
2023/07/08 02:23:15;;;;;;;7.32;3.95;;;17.30;99.90;;;;;;6333429;22;20022;-83
2023/07/08 02:25:49;;;;;;;6.47;3.53;;;17.20;99.90;;;;;;6333500;22;20060;-83
2023/07/08 02:28:15;;;;;;;7.37;4.03;;;17.30;99.90;;;;;;6334796;22;20013;-83
2023/07/08 02:30:41;;;;;;;8.93;4.60;;;17.20;99.90;;;;;;6282287;22;20238;-84
2023/07/08 02:33:06;;;;;;;6.80;4.28;;;17.20;99.90;;;;;;6280603;22;20022;-83
2023/07/08 02:35:32;;;;;;;8.05;4.90;;;17.10;99.90;;;;;;6308243;22;20023;-84
2023/07/08 02:37:58;;;;;;;8.52;4.30;;;17.10;99.90;;;;;;6281029;22;20508;-84
2023/07/08 02:40:24;;;;;;;8.40;4.20;;;17.10;99.90;;;;;;6306960;22;20019;-83
2023/07/08 02:42:50;;;;;;;9.07;4.68;;;17.10;99.90;;;;;;6335274;22;20010;-83
2023/07/08 02:45:17;;;;;;;8.40;4.78;;;17.10;99.90;;;;;;6307197;22;20036;-83
2023/07/08 02:47:43;;;;;;;7.47;4.13;;;17.00;99.90;;;;;;6306564;22;20063;-83
2023/07/08 02:50:10;;;;;;;10.25;4.90;;;17.00;99.90;;;;;;6307144;22;20042;-83
2023/07/08 02:52:36;;;;;;;7.40;4.65;;;17.00;99.90;;;;;;6307383;22;20780;-83
2023/07/08 02:55:02;;;;;;;7.95;3.95;;;17.00;99.90;;;;;;6307080;22;20018;-83
2023/07/08 02:57:31;;;;;;;7.90;4.88;;;17.00;99.90;;;;;;6335733;22;20068;-83
2023/07/08 02:59:56;;;;;;;9.20;5.03;;;17.00;99.90;;;;;;6306257;22;20458;-83
2023/07/08 03:02:22;;;;;;;7.57;4.25;;;16.90;99.90;;;;;;6307677;22;20015;-84
2023/07/08 03:04:49;;;;;;;7.72;4.57;;;16.90;99.90;;;;;;6334505;22;20053;-84
2023/07/08 03:07:16;;;;;;;9.90;4.85;;;16.90;99.90;;;;;;6305830;22;20342;-84
2023/07/08 03:09:42;;;;;;;8.13;4.60;;;16.80;99.90;;;;;;6306556;22;20042;-84
2023/07/08 03:12:11;;;;;;;8.52;5.03;;;16.80;99.90;;;;;;6281150;22;20014;-84
2023/07/08 03:14:37;;;;;;;7.45;5.03;;;16.80;99.90;;;;;;6335356;22;20014;-84
2023/07/08 03:17:03;;;;;;;11.82;5.50;;;16.80;99.90;;;;;;6282245;22;20010;-84
2023/07/08 03:19:29;;;;;;;10.98;5.00;;;16.70;99.90;;;;;;6335470;22;20446;-84
2023/07/08 03:21:55;;;;;;;7.78;4.38;;;16.70;99.90;;;;;;6308056;22;20028;-84
2023/07/08 03:24:26;;;;;;;7.95;4.57;;;16.70;99.90;;;;;;6335305;22;20064;-83
2023/07/08 03:26:54;;;;;;;9.55;5.03;;;16.70;99.90;;;;;;6281186;22;20571;-83
2023/07/08 03:29:23;;;;;;;7.40;4.75;;;16.70;99.90;;;;;;6307524;22;20022;-83
2023/07/08 03:31:49;;;;;;;9.30;4.43;;;16.70;99.90;;;;;;6280764;22;20045;-83
2023/07/08 03:34:16;;;;;;;9.77;4.70;;;16.70;99.90;;;;;;6306693;22;20011;-83
2023/07/08 03:36:49;;;;;;;10.02;4.45;;;16.70;99.90;;;;;;6306661;22;20010;-83
2023/07/08 03:39:20;;;;;;;9.95;5.65;;;16.60;99.90;;;;;;6332763;22;20018;-83
2023/07/08 03:41:47;;;;;;;15.00;5.45;;;16.60;99.90;;;;;;6306233;22;20059;-83
2023/07/08 03:44:15;;;;;;;11.73;5.47;;;16.60;99.90;;;;;;6306409;22;20014;-83
2023/07/08 03:46:42;;;;;;;8.57;4.60;;;16.60;99.90;;;;;;6333839;22;20085;-83
2023/07/08 03:49:10;;;;;;;9.50;5.65;;;16.60;99.90;;;;;;6306249;22;20007;-83
2023/07/08 03:51:38;;;;;;;11.52;5.72;;;16.60;99.90;;;;;;6307532;22;20018;-83
2023/07/08 03:54:05;;;;;;;11.02;5.88;;;16.50;99.90;;;;;;6333398;22;20056;-83
2023/07/08 03:56:31;;;;;;;8.00;5.20;;;16.50;99.90;;;;;;6334181;22;20588;-84
2023/07/08 03:58:58;;;;;;;9.55;5.68;;;16.50;99.90;;;;;;6278864;22;20018;-83
2023/07/08 04:01:25;;;;;;;9.63;5.40;;;16.50;99.90;;;;;;6333643;22;20015;-83
2023/07/08 04:03:55;;;;;;;9.02;5.32;;;16.50;99.90;;;;;;6280031;22;20011;-83
2023/07/08 04:06:21;;;;;;;11.05;5.88;;;16.50;99.90;;;;;;6333864;22;20015;-83
2023/07/08 04:08:48;;;;;;;9.80;4.95;;;16.50;99.90;;;;;;6280115;22;20013;-83
2023/07/08 04:11:17;;;;;;;11.45;5.97;;;16.40;99.90;;;;;;6305434;22;20019;-84
2023/07/08 04:13:43;;;;;;;11.23;6.03;;;16.50;99.90;;;;;;6279409;22;20014;-83
2023/07/08 04:16:27;;;;;;;9.60;6.45;;;16.50;99.90;;;;;;6306376;22;20023;-83
2023/07/08 04:18:53;;;;;;;;;;;16.40;99.90;;;;;;6333174;22;20050;-83
2023/07/08 04:21:20;;;;;;;8.38;5.60;;;16.40;99.90;;;;;;6305186;22;20332;-83
2023/07/08 04:23:46;;;;;;;11.40;5.82;;;16.40;99.90;;;;;;6306853;22;20015;-83
2023/07/08 04:26:12;;;;;;;14.90;5.97;;;16.40;99.90;;;;;;6305943;22;20007;-83
2023/07/08 04:28:38;;;;;;;10.60;6.00;;;16.40;99.90;;;;;;6332377;22;20441;-83
2023/07/08 04:31:03;;;;;;;9.65;4.97;;;16.40;99.90;;;;;;6305077;22;20018;-83
2023/07/08 04:33:29;;;;;;;9.27;5.68;;;16.40;99.90;;;;;;6305273;22;20018;-83
2023/07/08 04:35:55;;;;;;;11.75;6.30;;;16.40;99.90;;;;;;6333233;22;20045;-83
2023/07/08 04:38:24;;;;;;;10.52;5.90;;;16.40;99.90;;;;;;6305471;22;20011;-83
2023/07/08 04:40:51;;;;;;;9.70;5.72;;;16.40;99.90;;;;;;6305782;22;20014;-83
2023/07/08 04:43:18;;;;;;;10.15;6.05;;;16.40;99.90;;;;;;6279095;22;20064;-83
2023/07/08 04:45:47;;;;;;;9.80;5.68;;;16.40;99.90;;;;;;6279215;22;20015;-83
2023/07/08 04:48:18;;;;;;;10.93;6.05;;;16.40;99.90;;;;;;6305026;22;20019;-83
2023/07/08 04:50:46;;;;;;;8.45;6.05;;;16.60;99.90;;;;;;6332613;22;20015;-83
2023/07/08 04:53:13;;;;;;;8.40;5.03;;;16.50;99.90;;;;;;6332304;22;20019;-83
2023/07/08 04:55:45;;;;;;;8.75;5.60;;;16.50;99.90;;;;;;6304727;22;20329;-83
2023/07/08 04:58:11;;;;;;;9.52;6.03;;;16.50;99.90;;;;;;6279131;22;20010;-83
2023/07/08 05:00:36;;;;;;;9.23;5.95;;;16.50;99.90;;;;;;6279327;22;20060;-83
2023/07/08 05:03:02;;;;;;;10.77;5.78;;;16.50;99.90;;;;;;6306107;22;20015;-83
2023/07/08 05:05:28;;;;;;;10.98;5.90;;;16.50;99.90;;;;;;6304834;22;20337;-84
2023/07/08 05:07:54;;;;;;;11.48;6.00;;;16.50;99.90;;;;;;6305452;22;20007;-84
2023/07/08 05:10:20;;;;;;;8.35;5.95;;;16.50;99.90;;;;;;6333291;22;20050;-83
2023/07/08 05:12:47;;;;;;;9.10;6.00;;;16.50;99.90;;;;;;6305262;22;20015;-84
2023/07/08 05:15:14;;;;;;;8.45;5.53;;;16.60;99.90;;;;;;6333504;22;20046;-83
2023/07/08 05:17:41;;;;;;;10.77;5.97;;;16.60;99.90;;;;;;6280301;22;20090;-83
2023/07/08 05:20:09;;;;;;;8.70;5.90;;;16.60;99.90;;;;;;6333952;22;20065;-83
2023/07/08 05:22:37;;;;;;;8.52;5.68;;;16.60;99.90;;;;;;6282726;22;20007;-95
2023/07/08 05:25:05;;;;;;;7.90;4.82;;;16.60;99.90;;;;;;6288001;22;20011;-91
2023/07/08 05:27:33;;;;;;;10.05;6.03;;;16.70;99.90;;;;;;6283452;22;20007;-87
2023/07/08 05:30:05;;;;;;;11.25;5.53;;;16.70;99.90;;;;;;6337521;22;20014;-90
2023/07/08 05:32:32;;;;;;;7.97;5.20;;;16.70;99.90;;;;;;6282742;22;20042;-93
2023/07/08 05:34:58;;;;;;;10.73;5.50;;;17.00;99.90;;;;;;6309105;22;20019;-91
2023/07/08 05:37:25;;;;;;;8.50;5.50;;;16.80;99.90;;;;;;6284725;22;20083;-94
2023/07/08 05:39:59;;;;;;;8.27;5.50;;;16.80;99.90;;;;;;6310866;22;20014;-92
2023/07/08 05:42:32;;;;;;;10.88;5.55;;;16.90;99.90;;;;;;6338576;22;20102;-84
2023/07/08 05:44:58;;;;;;;8.65;5.47;;;16.90;99.90;;;;;;6305632;22;20457;-84
2023/07/08 05:47:26;;;;;;;8.90;5.57;;;16.90;99.90;;;;;;6305296;22;20163;-84
2023/07/08 05:49:52;;;;;;;9.93;5.22;;;17.00;99.90;;;;;;6305482;22;20570;-84
2023/07/08 05:52:18;;;;;;;9.15;5.50;;;17.00;99.90;;;;;;6332323;22;20011;-84
2023/07/08 05:54:43;;;;;;;8.57;5.32;;;17.00;99.90;;;;;;6306062;22;20101;-84
2023/07/08 05:57:10;;;;;;;9.00;5.47;;;17.10;99.90;;;;;;6305273;22;20018;-84
2023/07/08 05:59:38;;;;;;;7.88;5.70;;;17.20;99.90;;;;;;6279946;22;20014;-85
2023/07/08 06:02:05;;;;;;;7.78;4.70;;;17.20;99.90;;;;;;6303622;22;20011;-84
2023/07/08 06:04:31;;;;;;;11.27;5.43;;;17.20;99.90;;;;;;6331498;22;20089;-85
2023/07/08 06:06:57;;;;;;;7.28;4.90;;;17.30;99.90;;;;;;6305303;22;20395;-85
2023/07/08 06:09:23;;;;;;;10.85;5.55;;;17.30;99.90;;;;;;6306302;22;20007;-85
2023/07/08 06:11:49;;;;;;;11.00;5.47;;;17.30;99.90;;;;;;6306220;22;20022;-86
2023/07/08 06:14:15;;;;;;;9.43;5.55;;;17.40;99.90;;;;;;6333986;22;20372;-85
2023/07/08 06:16:41;;;;;;;8.93;5.28;;;17.40;99.90;;;;;;6306448;22;20019;-85
2023/07/08 06:19:06;;;;;;;7.55;4.72;;;17.50;99.90;;;;;;6306734;22;20038;-85
2023/07/08 06:21:32;;;;;;;7.72;5.07;;;17.50;99.90;;;;;;6306649;22;20104;-84
2023/07/08 06:23:58;;;;;;;8.23;5.32;;;17.60;99.90;;;;;;6304803;22;20007;-85
2023/07/08 06:26:23;;;;;;;8.40;4.90;;;17.60;99.90;;;;;;6306245;22;20015;-85
2023/07/08 06:28:49;;;;;;;8.63;4.50;;;17.60;99.90;;;;;;6280682;22;20014;-86
2023/07/08 06:31:15;;;;;;;7.88;5.18;;;17.70;99.90;;;;;;6304222;22;20011;-85
2023/07/08 06:33:42;;;;;;;6.38;4.13;;;17.70;99.90;;;;;;6333018;22;20039;-88
2023/07/08 06:36:08;;;;;;;7.40;4.50;;;17.80;99.90;;;;;;6307437;22;20011;-89
2023/07/08 06:38:34;;;;;;;7.97;4.70;;;17.80;99.90;;;;;;6280182;22;20025;-88
2023/07/08 06:41:00;;;;;;;8.52;4.72;;;17.90;99.90;;;;;;6335909;22;20033;-89
2023/07/08 06:43:26;;;;;;;8.45;4.75;;;18.00;99.90;;;;;;6335352;22;20007;-87
2023/07/08 06:45:52;;;;;;;9.75;4.97;;;18.10;99.90;;;;;;6333645;22;20017;-89
2023/07/08 06:48:18;;;;;;;9.30;4.80;;;18.10;99.90;;;;;;6335134;22;20007;-88
2023/07/08 06:50:47;;;;;;;7.88;4.78;;;18.20;99.90;;;;;;6307736;22;20102;-89
2023/07/08 06:53:14;;;;;;;7.10;4.50;;;18.30;99.90;;;;;;6281537;22;20384;-89
2023/07/08 06:55:39;;;;;;;7.38;4.97;;;18.30;99.90;;;;;;6308212;22;20030;-88
2023/07/08 06:58:05;;;;;;;8.02;4.40;;;18.40;99.90;;;;;;6306643;22;20342;-88
2023/07/08 07:00:30;;;;;;;6.82;4.10;;;18.50;99.90;;;;;;6280405;22;20018;-88
2023/07/08 07:02:56;;;;;;;7.88;4.15;;;18.50;99.90;;;;;;6280759;22;20014;-88
2023/07/08 07:05:22;;;;;;;6.93;4.18;;;18.50;99.90;;;;;;6336194;22;20432;-89
2023/07/08 07:07:47;;;;;;;9.68;4.28;;;18.70;99.90;;;;;;6334634;22;20049;-88
2023/07/08 07:10:13;;;;;;;7.43;4.15;;;18.80;99.90;;;;;;6306890;22;20348;-85
2023/07/08 07:12:39;;;;;;;8.88;4.03;;;18.90;99.90;;;;;;6335001;22;20015;-89
2023/07/08 07:15:05;;;;;;;8.25;4.32;;;19.00;99.90;;;;;;6335685;22;20426;-87
2023/07/08 07:17:31;;;;;;;7.30;3.65;;;19.20;99.90;;;;;;6337213;22;20014;-86
2023/07/08 07:19:56;;;;;;;8.50;3.65;;;19.40;99.90;;;;;;6307831;22;20033;-87
2023/07/08 07:22:23;;;;;;;8.10;3.80;;;19.70;99.90;;;;;;6309109;22;20424;-88
2023/07/08 07:24:49;;;;;;;8.57;3.88;;;20.00;99.90;;;;;;6309548;22;20072;-88
2023/07/08 07:27:15;;;;;;;10.15;4.03;;;20.40;99.90;;;;;;6308894;22;20018;-88
2023/07/08 07:29:49;;;;;;;5.60;3.88;;;20.70;99.90;;;;;;6282938;22;20018;-88
2023/07/08 07:32:15;;;;;;;;;;;21.10;99.90;;;;;;6309360;22;20014;-88
2023/07/08 07:34:41;;;;;;;6.20;3.60;;;21.40;99.90;;;;;;6308700;22;19914;-91
2023/07/08 07:37:18;;;;;;;6.45;3.92;;;21.70;99.90;;;;;;6336881;22;20083;-90
2023/07/08 07:39:44;;;;;;;8.52;3.72;;;22.00;99.90;;;;;;6336013;22;20348;-91
2023/07/08 07:42:11;;;;;;;7.93;3.95;;;22.20;99.90;;;;;;6336971;22;20450;-91
2023/07/08 07:44:39;;;;;;;8.10;3.97;;;22.40;99.90;;;;;;6309771;22;20054;-90
2023/07/08 07:47:05;;;;;;;7.90;4.00;;;22.60;99.90;;;;;;6310214;22;20017;-90
2023/07/08 07:49:31;;;;;;;9.00;3.85;;;22.70;99.90;;;;;;6311522;22;20066;-92
2023/07/08 07:51:57;;;;;;;7.20;4.00;;;22.90;99.90;;;;;;6309058;22;20119;-92
2023/07/08 07:54:23;;;;;;;7.05;3.58;;;23.10;99.90;;;;;;6285171;22;20067;-91
2023/07/08 07:56:48;;;;;;;8.75;3.30;;;23.20;99.90;;;;;;6313664;22;20010;-96
2023/07/08 07:59:14;;;;;;;6.20;3.35;;;23.30;99.90;;;;;;6322462;22;20010;-93
2023/07/08 08:01:41;;;;;;;5.80;3.33;;;23.40;99.90;;;;;;6344413;22;20043;-94
2023/07/08 08:51:00;;;;;;;6.28;3.10;;;23.90;99.10;;;;;;6331768;22;20046;-83
2023/07/08 08:53:26;;;;;;;6.50;3.38;;;24.00;99.40;;;;;;6334294;22;20017;-85
2023/07/08 08:56:09;;;;;;;7.85;3.13;;;24.10;99.50;;;;;;6333836;22;20086;-83
2023/07/08 08:58:51;;;;;;;9.18;3.53;;;24.30;99.90;;;;;;6333711;22;20025;-86
2023/07/08 09:01:17;;;;;;;5.60;2.92;;;24.40;99.50;;;;;;6305954;22;20018;-83
2023/07/08 09:03:53;;;;;;;6.63;3.05;;;24.50;98.90;;;;;;6333264;22;20157;-83
2023/07/08 09:06:20;;;;;;;6.35;3.03;;;24.60;98.80;;;;;;6306253;22;20018;-83
2023/07/08 09:08:47;;;;;;;7.65;3.58;;;24.60;98.60;;;;;;6333648;22;20019;-85
2023/07/08 09:11:51;;;;;;;5.20;2.90;;;24.70;98.60;;;;;;6333183;22;20018;-85
2023/07/08 09:14:25;;;;;;;9.15;3.58;;;24.80;98.60;;;;;;6304479;22;20018;-83
2023/07/08 09:17:11;;;;;;;7.15;3.47;;;24.90;98.90;;;;;;6279774;22;20025;-83
2023/07/08 09:20:03;;;;;;;9.32;3.40;;;25.00;97.80;;;;;;6279384;22;20089;-85
2023/07/08 09:22:45;;;;;;;6.75;3.08;;;25.10;98.00;;;;;;6279003;22;20525;-84
2023/07/08 09:25:11;;;;;;;5.93;3.50;;;25.20;97.70;;;;;;6306441;22;20015;-85
2023/07/08 09:27:37;;;;;;;6.55;3.17;;;25.20;97.40;;;;;;6333663;22;20034;-84
2023/07/08 09:30:03;;;;;;;6.50;2.88;;;25.30;97.40;;;;;;6333524;22;20326;-85
2023/07/08 09:32:28;;;;;;;6.10;3.00;;;25.30;97.50;;;;;;6305142;22;20018;-85
2023/07/08 09:35:06;;;;;;;7.07;3.10;;;25.40;97.70;;;;;;6279401;22;20789;-85
2023/07/08 09:37:34;;;;;;;8.05;3.00;;;25.50;97.40;;;;;;6305154;22;20094;-86
2023/07/08 09:40:14;;;;;;;8.25;3.10;;;25.50;97.60;;;;;;6303081;22;20018;-85
2023/07/08 09:42:42;;;;;;;5.75;3.22;;;25.70;97.50;;;;;;6306154;22;20030;-84
2023/07/08 09:45:16;;;;;;;5.53;3.10;;;25.70;97.40;;;;;;6332826;22;20018;-83
2023/07/08 09:47:45;;;;;;;7.80;3.10;;;25.90;96.80;;;;;;6304239;22;20022;-85
2023/07/08 09:50:21;;;;;;;6.00;3.10;;;25.90;97.20;;;;;;6305176;22;20090;-85
2023/07/08 09:52:48;;;;;;;5.03;2.97;;;26.00;97.00;;;;;;6333694;22;20022;-86
2023/07/08 09:55:15;;;;;;;8.45;3.35;;;26.10;97.20;;;;;;6305358;22;20061;-85
2023/07/08 09:57:42;;;;;;;6.72;3.30;;;26.20;96.80;;;;;;6332877;22;20015;-85
2023/07/08 10:00:15;;;;;;;5.03;3.03;;;26.30;96.50;;;;;;6277647;22;20459;-85
2023/07/08 10:02:49;;;;;;;6.55;3.17;;;26.40;96.30;;;;;;6333004;22;20017;-85
2023/07/08 10:05:20;;;;;;;6.57;3.22;;;26.40;96.40;;;;;;6332350;22;20041;-85
2023/07/08 10:07:47;;;;;;;7.28;3.25;;;26.50;96.20;;;;;;6332463;22;20011;-85
2023/07/08 10:10:18;;;;;;;6.97;3.20;;;26.60;96.40;;;;;;6333345;22;20061;-85
2023/07/08 10:13:14;;;;;;;12.73;3.65;;;26.70;96.50;;;;;;6333781;22;20015;-85
2023/07/08 10:15:46;;;;;;;10.85;3.25;;;26.80;96.30;;;;;;6176358;23;20013;-86
2023/07/08 10:18:17;;;;;;;5.60;2.72;;;26.90;96.50;;;;;;6150944;23;20021;-86
2023/07/08 10:20:57;;;;;;;6.47;2.75;;;27.00;96.50;;;;;;6177295;23;20013;-86
2023/07/08 10:23:34;;;;;;;13.55;3.75;;;27.10;95.70;;;;;;6176214;23;20021;-85
2023/07/08 10:26:21;;;;;;;12.65;3.58;;;27.10;95.80;;;;;;6150191;23;20021;-86
2023/07/08 10:28:56;;;;;;;11.05;3.50;;;27.10;96.20;;;;;;6152009;23;20445;-86
2023/07/08 10:31:35;;;;;;;10.98;3.72;;;27.20;95.50;;;;;;6151567;23;20017;-87
2023/07/08 10:34:01;;;;;;;11.75;4.25;;;27.30;95.00;;;;;;6176072;23;20046;-87
2023/07/08 10:36:39;;;;;;;17.83;4.13;;;27.40;95.60;;;;;;6151632;23;20013;-88
2023/07/08 10:39:43;;;;;;;26.08;4.40;;;27.40;95.90;;;;;;6151160;23;20013;-88
2023/07/08 10:42:38;;;;;;;6.95;3.30;;;27.60;95.20;;;;;;6175632;23;20047;-87
2023/07/08 10:45:06;;;;;;;15.07;3.80;;;27.70;94.80;;;;;;6150850;23;20016;-87
2023/07/08 10:47:38;;;;;;;6.22;3.35;;;27.80;95.30;;;;;;6152043;23;20020;-88
2023/07/08 10:50:40;;;;;;;8.85;3.67;;;27.90;95.60;;;;;;6178180;23;20021;-87
2023/07/08 10:53:30;;;;;;;8.15;3.08;;;28.00;95.60;;;;;;6238169;22;20011;-87
2023/07/08 10:56:16;;;;;;;8.70;3.90;;;28.10;95.10;;;;;;6306579;22;20015;-87
2023/07/08 10:59:06;;;;;;;6.20;3.67;;;28.20;94.50;;;;;;6334971;22;20045;-87
2023/07/08 11:01:58;;;;;;;16.08;3.80;;;28.30;94.70;;;;;;6306365;22;20011;-87
2023/07/08 11:05:04;;;;;;;45.15;6.88;;;28.40;94.90;;;;;;6153652;23;20041;-87
2023/07/08 11:07:46;;;;;;;5.43;3.00;;;28.50;94.70;;;;;;6162674;23;20496;-86
2023/07/08 11:10:16;;;;;;;9.30;3.35;;;28.70;95.10;;;;;;6152141;23;20021;-84
2023/07/08 11:12:54;;;;;;;7.28;3.40;;;28.80;94.60;;;;;;6153496;23;20103;-85
2023/07/08 11:15:34;;;;;;;7.80;3.40;;;28.90;94.10;;;;;;6153509;23;20460;-86
2023/07/08 11:18:39;;;;;;;5.35;2.92;;;29.00;94.50;;;;;;6178725;23;20075;-85
2023/07/08 11:21:10;;;;;;;;;;;29.10;94.30;;;;;;6177120;23;20017;-88
2023/07/08 11:23:58;;;;;;;6.18;3.05;;;29.20;93.90;;;;;;6178336;23;19918;-89
2023/07/08 11:26:50;;;;;;;7.03;2.97;;;29.20;93.50;;;;;;6154060;23;20037;-93
2023/07/08 11:29:20;;;;;;;5.03;3.20;;;29.30;93.20;;;;;;6177978;23;20017;-90
2023/07/08 11:31:47;;;;;;;7.25;3.60;;;29.30;93.20;;;;;;6176270;23;20017;-87
2023/07/08 11:34:15;;;;;;;6.72;3.35;;;29.40;93.10;;;;;;6177070;23;20021;-86
2023/07/08 11:36:43;;;;;;;5.15;2.92;;;29.40;93.00;;;;;;6152390;23;20028;-86
2023/07/08 11:39:34;;;;;;;6.32;3.33;;;29.50;93.10;;;;;;6177197;23;20025;-89
2023/07/08 11:42:23;;;;;;;8.35;3.80;;;29.60;93.30;;;;;;6295650;22;20090;-88
2023/07/08 11:44:56;;;;;;;5.70;3.15;;;29.70;92.50;;;;;;6305547;22;20068;-89
2023/07/08 11:47:31;;;;;;;8.45;2.80;;;29.70;92.60;;;;;;6307470;22;20014;-87
2023/07/08 11:49:57;;;;;;;6.38;3.33;;;29.80;93.00;;;;;;6306309;22;20022;-83
2023/07/08 11:52:23;;;;;;;10.30;3.45;;;29.90;92.80;;;;;;6305758;22;20491;-83
2023/07/08 11:54:59;;;;;;;6.25;3.10;;;30.10;92.50;;;;;;6334092;22;20068;-81
2023/07/08 11:57:31;;;;;;;6.50;3.35;;;30.10;92.70;;;;;;6334374;22;20019;-86
2023/07/08 12:00:22;;;;;;;10.15;3.35;;;30.20;92.20;;;;;;6305087;22;20019;-87
2023/07/08 12:03:03;;;;;;;5.75;3.33;;;30.40;91.20;;;;;;6282731;22;20095;-87
2023/07/08 12:05:32;;;;;;;8.13;3.50;;;30.40;92.10;;;;;;6306612;22;20010;-86
2023/07/08 12:07:59;;;;;;;5.22;3.15;;;30.50;91.70;;;;;;6306089;22;20006;-85
2023/07/08 12:10:46;;;;;;;5.78;3.63;;;30.50;91.60;;;;;;6279056;22;20022;-85
2023/07/08 12:13:21;;;;;;;6.20;2.92;;;30.50;91.30;;;;;;6333089;22;20015;-85
2023/07/08 12:15:47;;;;;;;9.50;3.50;;;30.60;91.50;;;;;;6307604;22;20014;-85
2023/07/08 12:18:25;;;;;;;6.13;3.40;;;30.70;91.10;;;;;;6306425;22;20015;-86
2023/07/08 12:21:00;;;;;;;6.95;3.50;;;30.70;91.60;;;;;;6333923;22;20044;-87
2023/07/08 12:23:27;;;;;;;7.97;3.38;;;30.80;91.30;;;;;;6332244;22;20086;-87
2023/07/08 12:25:54;;;;;;;7.25;3.55;;;30.90;91.00;;;;;;6332521;22;20429;-86
2023/07/08 12:28:21;;;;;;;8.55;3.25;;;30.90;90.80;;;;;;6305513;22;20011;-89
2023/07/08 12:30:48;;;;;;;6.85;3.40;;;30.90;91.00;;;;;;6334950;22;20042;-89
2023/07/08 12:33:34;;;;;;;6.80;3.13;;;30.90;90.70;;;;;;6302874;22;20021;-87
2023/07/08 12:36:04;;;;;;;9.75;3.67;;;31.00;90.40;;;;;;6305821;22;20022;-92
2023/07/08 12:38:46;;;;;;;5.63;3.42;;;31.00;90.40;;;;;;6305614;22;20068;-85
2023/07/08 12:41:22;;;;;;;6.40;3.85;;;31.10;90.60;;;;;;6305257;22;20003;-87
2023/07/08 12:43:48;;;;;;;5.22;3.72;;;31.10;90.60;;;;;;6279552;22;20014;-85
2023/07/08 12:46:16;;;;;;;7.47;3.97;;;31.20;90.20;;;;;;6305629;22;20093;-85
2023/07/08 12:48:42;;;;;;;6.55;3.35;;;31.20;89.10;;;;;;6306318;22;20010;-86
2023/07/08 12:51:15;;;;;;;6.47;3.72;;;31.30;88.80;;;;;;6278227;22;20042;-84
2023/07/08 12:53:42;;;;;;;5.55;3.40;;;31.40;90.00;;;;;;6305458;22;20011;-86
2023/07/08 12:56:08;;;;;;;9.82;3.47;;;31.40;87.40;;;;;;6304084;22;20011;-84
2023/07/08 12:58:39;;;;;;;7.25;3.33;;;31.60;89.30;;;;;;6334064;22;20050;-88
2023/07/08 13:01:06;;;;;;;8.00;3.60;;;31.70;90.10;;;;;;6333298;22;20021;-86
2023/07/08 13:03:42;;;;;;;9.13;3.75;;;31.80;90.10;;;;;;6306347;22;20148;-84
2023/07/08 13:06:10;;;;;;;8.15;3.85;;;31.90;89.70;;;;;;6306556;22;20117;-86
2023/07/08 13:08:38;;;;;;;8.30;4.18;;;32.00;90.10;;;;;;6334298;22;20085;-84
2023/07/08 13:11:06;;;;;;;7.03;3.55;;;32.10;89.00;;;;;;6303972;22;20045;-87
2023/07/08 13:13:36;;;;;;;7.53;3.95;;;32.10;88.30;;;;;;6333429;22;20057;-88
2023/07/08 13:16:02;;;;;;;7.43;3.80;;;32.20;86.90;;;;;;6334219;22;20440;-90
2023/07/08 13:18:38;;;;;;;6.57;4.15;;;32.20;87.50;;;;;;6306390;22;20059;-92
2023/07/08 13:21:08;;;;;;;7.22;4.20;;;32.20;86.40;;;;;;6305932;22;20011;-87
2023/07/08 13:23:35;;;;;;;7.93;3.78;;;32.20;87.40;;;;;;6307054;22;20040;-89
2023/07/08 13:26:11;;;;;;;7.35;4.40;;;32.30;86.00;;;;;;6305950;22;20472;-85
2023/07/08 13:28:44;;;;;;;8.05;4.18;;;32.20;86.10;;;;;;6279998;22;20006;-88
2023/07/08 13:31:21;;;;;;;6.38;3.88;;;32.30;85.30;;;;;;6304666;22;20014;-91
2023/07/08 13:33:50;;;;;;;7.35;4.20;;;32.30;85.80;;;;;;6307399;22;20019;-90
2023/07/08 13:36:25;;;;;;;10.90;4.68;;;32.40;86.10;;;;;;6304690;22;20022;-88
2023/07/08 13:38:51;;;;;;;7.45;3.72;;;32.50;86.20;;;;;;6307371;22;20026;-90
2023/07/08 13:41:22;;;;;;;6.90;3.92;;;32.50;85.40;;;;;;6334405;22;20029;-91
2023/07/08 13:43:48;;;;;;;7.63;4.22;;;32.60;85.00;;;;;;6306680;22;20452;-90
2023/07/08 13:46:33;;;;;;;6.82;4.47;;;32.60;84.90;;;;;;6335465;22;20007;-91
2023/07/08 13:49:19;;;;;;;9.38;4.18;;;32.60;86.40;;;;;;6334081;22;20472;-92